sensor_id;sensor_type;location;lat;lon;timestamp;temperature;humidity
27306;DHT22;14792;50.886;6.468;2023-08-06T00:01:40;15.20;99.90
27306;DHT22;14792;50.886;6.468;2023-08-06T00:04:42;15.20;99.90
27306;DHT22;14792;50.886;6.468;2023-08-06T00:07:44;15.10;99.90
27306;DHT22;14792;50.886;6.468;2023-08-06T00:10:47;15.20;99.90
27306;DHT22;14792;50.886;6.468;2023-08-06T00:13:47;15.10;99.90
27306;DHT22;14792;50.886;6.468;2023-08-06T00:16:48;15.10;99.90
27306;DHT22;14792;50.886;6.468;2023-08-06T00:19:50;15.00;99.90
27306;DHT22;14792;50.886;6.468;2023-08-06T00:22:52;15.00;99.90
27306;DHT22;14792;50.886;6.468;2023-08-06T00:25:53;15.00;99.90
27306;DHT22;14792;50.886;6.468;2023-08-06T00:28:55;15.00;99.90
27306;DHT22;14792;50.886;6.468;2023-08-06T00:31:56;15.10;99.90
27306;DHT22;14792;50.886;6.468;2023-08-06T00:34:58;15.10;99.90
27306;DHT22;14792;50.886;6.468;2023-08-06T00:37:59;15.20;99.90
27306;DHT22;14792;50.886;6.468;2023-08-06T00:41:01;15.20;99.90
27306;DHT22;14792;50.886;6.468;2023-08-06T00:44:03;15.20;99.90
27306;DHT22;14792;50.886;6.468;2023-08-06T00:47:05;15.20;99.90
27306;DHT22;14792;50.886;6.468;2023-08-06T00:50:06;15.20;99.90
27306;DHT22;14792;50.886;6.468;2023-08-06T00:53:08;15.20;99.90
27306;DHT22;14792;50.886;6.468;2023-08-06T00:56:09;15.20;99.90
27306;DHT22;14792;50.886;6.468;2023-08-06T00:59:11;15.20;99.90
27306;DHT22;14792;50.886;6.468;2023-08-06T01:02:12;15.20;99.90
27306;DHT22;14792;50.886;6.468;2023-08-06T01:05:14;15.10;99.90
27306;DHT22;14792;50.886;6.468;2023-08-06T01:08:19;15.10;99.90
27306;DHT22;14792;50.886;6.468;2023-08-06T01:11:44;15.00;99.90
27306;DHT22;14792;50.886;6.468;2023-08-06T01:14:52;15.00;99.90
27306;DHT22;14792;50.886;6.468;2023-08-06T01:17:49;14.90;99.90
27306;DHT22;14792;50.886;6.468;2023-08-06T01:20:51;14.90;99.90
27306;DHT22;14792;50.886;6.468;2023-08-06T01:23:52;14.90;99.90
27306;DHT22;14792;50.886;6.468;2023-08-06T01:27:04;14.90;99.90
27306;DHT22;14792;50.886;6.468;2023-08-06T01:30:08;14.80;99.90
27306;DHT22;14792;50.886;6.468;2023-08-06T01:33:09;14.90;99.90
27306;DHT22;14792;50.886;6.468;2023-08-06T01:36:10;14.80;99.90
27306;DHT22;14792;50.886;6.468;2023-08-06T01:39:11;14.80;99.90
27306;DHT22;14792;50.886;6.468;2023-08-06T01:42:14;14.90;99.90
27306;DHT22;14792;50.886;6.468;2023-08-06T01:45:15;14.90;99.90
27306;DHT22;14792;50.886;6.468;2023-08-06T01:48:17;14.80;99.90
27306;DHT22;14792;50.886;6.468;2023-08-06T01:51:19;14.80;99.90
27306;DHT22;14792;50.886;6.468;2023-08-06T01:54:20;14.80;99.90
27306;DHT22;14792;50.886;6.468;2023-08-06T01:57:22;14.80;99.90
27306;DHT22;14792;50.886;6.468;2023-08-06T02:00:23;14.80;99.90
27306;DHT22;14792;50.886;6.468;2023-08-06T02:03:25;14.80;99.90
27306;DHT22;14792;50.886;6.468;2023-08-06T02:06:27;14.90;99.90
27306;DHT22;14792;50.886;6.468;2023-08-06T02:09:28;14.90;99.90
27306;DHT22;14792;50.886;6.468;2023-08-06T02:12:30;14.90;99.90
27306;DHT22;14792;50.886;6.468;2023-08-06T02:15:31;14.80;99.90
27306;DHT22;14792;50.886;6.468;2023-08-06T02:18:33;14.80;99.90
27306;DHT22;14792;50.886;6.468;2023-08-06T02:21:35;14.90;99.90
27306;DHT22;14792;50.886;6.468;2023-08-06T02:24:36;15.00;99.90
27306;DHT22;14792;50.886;6.468;2023-08-06T02:27:38;15.00;99.90
27306;DHT22;14792;50.886;6.468;2023-08-06T02:30:39;15.00;99.90
27306;DHT22;14792;50.886;6.468;2023-08-06T02:33:41;15.00;99.90
27306;DHT22;14792;50.886;6.468;2023-08-06T02:36:42;15.00;99.90
27306;DHT22;14792;50.886;6.468;2023-08-06T02:39:44;15.00;99.90
27306;DHT22;14792;50.886;6.468;2023-08-06T02:42:46;15.10;99.90
27306;DHT22;14792;50.886;6.468;2023-08-06T02:45:47;15.10;99.90
27306;DHT22;14792;50.886;6.468;2023-08-06T02:48:49;15.10;99.90
27306;DHT22;14792;50.886;6.468;2023-08-06T02:51:51;15.10;99.90
27306;DHT22;14792;50.886;6.468;2023-08-06T02:54:52;15.20;99.90
27306;DHT22;14792;50.886;6.468;2023-08-06T02:57:54;15.20;99.90
27306;DHT22;14792;50.886;6.468;2023-08-06T03:01:05;15.20;99.90
27306;DHT22;14792;50.886;6.468;2023-08-06T03:07:29;15.10;99.90
27306;DHT22;14792;50.886;6.468;2023-08-06T03:10:30;15.10;99.90
27306;DHT22;14792;50.886;6.468;2023-08-06T03:13:32;15.10;99.90
27306;DHT22;14792;50.886;6.468;2023-08-06T03:16:34;15.10;99.90
27306;DHT22;14792;50.886;6.468;2023-08-06T03:19:35;15.00;99.90
27306;DHT22;14792;50.886;6.468;2023-08-06T03:22:37;15.00;99.90
27306;DHT22;14792;50.886;6.468;2023-08-06T03:25:38;15.00;99.90
27306;DHT22;14792;50.886;6.468;2023-08-06T03:28:40;15.00;99.90
27306;DHT22;14792;50.886;6.468;2023-08-06T03:31:41;14.90;99.90
27306;DHT22;14792;50.886;6.468;2023-08-06T03:34:43;14.90;99.90
27306;DHT22;14792;50.886;6.468;2023-08-06T03:37:45;14.90;99.90
27306;DHT22;14792;50.886;6.468;2023-08-06T03:40:46;15.00;99.90
27306;DHT22;14792;50.886;6.468;2023-08-06T03:43:48;15.00;99.90
27306;DHT22;14792;50.886;6.468;2023-08-06T03:46:49;14.90;99.90
27306;DHT22;14792;50.886;6.468;2023-08-06T03:49:51;14.90;99.90
27306;DHT22;14792;50.886;6.468;2023-08-06T03:52:53;15.00;99.90
27306;DHT22;14792;50.886;6.468;2023-08-06T03:55:54;15.00;99.90
27306;DHT22;14792;50.886;6.468;2023-08-06T03:58:56;15.00;99.90
27306;DHT22;14792;50.886;6.468;2023-08-06T04:01:57;15.00;99.90
27306;DHT22;14792;50.886;6.468;2023-08-06T04:05:00;14.80;99.90
27306;DHT22;14792;50.886;6.468;2023-08-06T04:08:01;14.70;99.90
27306;DHT22;14792;50.886;6.468;2023-08-06T04:11:02;14.60;99.90
27306;DHT22;14792;50.886;6.468;2023-08-06T04:14:04;14.70;99.90
27306;DHT22;14792;50.886;6.468;2023-08-06T04:17:05;14.70;99.90
27306;DHT22;14792;50.886;6.468;2023-08-06T04:23:30;14.60;99.90
27306;DHT22;14792;50.886;6.468;2023-08-06T04:26:31;14.70;99.90
27306;DHT22;14792;50.886;6.468;2023-08-06T04:29:33;14.60;99.90
27306;DHT22;14792;50.886;6.468;2023-08-06T04:32:34;14.60;99.90
27306;DHT22;14792;50.886;6.468;2023-08-06T04:35:36;14.60;99.90
27306;DHT22;14792;50.886;6.468;2023-08-06T04:38:37;14.60;99.90
27306;DHT22;14792;50.886;6.468;2023-08-06T04:41:39;14.50;99.90
27306;DHT22;14792;50.886;6.468;2023-08-06T04:44:41;14.60;99.90
27306;DHT22;14792;50.886;6.468;2023-08-06T04:47:42;14.70;99.90
27306;DHT22;14792;50.886;6.468;2023-08-06T04:50:47;14.70;99.90
27306;DHT22;14792;50.886;6.468;2023-08-06T04:53:45;14.70;99.90
27306;DHT22;14792;50.886;6.468;2023-08-06T04:56:47;14.70;99.90
27306;DHT22;14792;50.886;6.468;2023-08-06T04:59:49;14.80;99.90
27306;DHT22;14792;50.886;6.468;2023-08-06T05:02:50;14.70;99.90
27306;DHT22;14792;50.886;6.468;2023-08-06T05:05:52;14.70;99.90
27306;DHT22;14792;50.886;6.468;2023-08-06T05:08:53;14.80;99.90
27306;DHT22;14792;50.886;6.468;2023-08-06T05:11:55;14.80;99.90
27306;DHT22;14792;50.886;6.468;2023-08-06T05:14:56;14.80;99.90
27306;DHT22;14792;50.886;6.468;2023-08-06T05:17:58;14.70;99.90
27306;DHT22;14792;50.886;6.468;2023-08-06T05:21:00;14.60;99.90
27306;DHT22;14792;50.886;6.468;2023-08-06T05:24:01;14.70;99.90
27306;DHT22;14792;50.886;6.468;2023-08-06T05:27:03;14.70;99.90
27306;DHT22;14792;50.886;6.468;2023-08-06T05:30:05;14.60;99.90
27306;DHT22;14792;50.886;6.468;2023-08-06T05:33:06;14.70;99.90
27306;DHT22;14792;50.886;6.468;2023-08-06T05:36:08;14.70;99.90
27306;DHT22;14792;50.886;6.468;2023-08-06T05:39:09;14.70;99.90
27306;DHT22;14792;50.886;6.468;2023-08-06T05:42:11;14.70;99.90
27306;DHT22;14792;50.886;6.468;2023-08-06T05:45:13;14.70;99.90
27306;DHT22;14792;50.886;6.468;2023-08-06T05:48:14;14.70;99.90
27306;DHT22;14792;50.886;6.468;2023-08-06T05:51:16;14.70;99.90
27306;DHT22;14792;50.886;6.468;2023-08-06T05:54:17;14.80;99.90
27306;DHT22;14792;50.886;6.468;2023-08-06T05:57:19;14.90;99.90
27306;DHT22;14792;50.886;6.468;2023-08-06T06:00:29;15.00;99.90
27306;DHT22;14792;50.886;6.468;2023-08-06T06:03:31;14.90;99.90
27306;DHT22;14792;50.886;6.468;2023-08-06T06:06:35;14.90;99.90
27306;DHT22;14792;50.886;6.468;2023-08-06T06:09:34;14.90;99.90
27306;DHT22;14792;50.886;6.468;2023-08-06T06:12:37;15.00;99.90
27306;DHT22;14792;50.886;6.468;2023-08-06T06:15:37;14.90;99.90
27306;DHT22;14792;50.886;6.468;2023-08-06T06:18:39;15.00;99.90
27306;DHT22;14792;50.886;6.468;2023-08-06T06:21:41;14.90;99.90
27306;DHT22;14792;50.886;6.468;2023-08-06T06:24:42;15.00;99.90
27306;DHT22;14792;50.886;6.468;2023-08-06T06:27:44;15.00;99.90
27306;DHT22;14792;50.886;6.468;2023-08-06T06:30:45;15.10;99.90
27306;DHT22;14792;50.886;6.468;2023-08-06T06:33:47;15.10;99.90
27306;DHT22;14792;50.886;6.468;2023-08-06T06:36:48;15.10;99.90
27306;DHT22;14792;50.886;6.468;2023-08-06T06:39:50;15.10;99.90
27306;DHT22;14792;50.886;6.468;2023-08-06T06:42:52;15.30;99.90
27306;DHT22;14792;50.886;6.468;2023-08-06T06:45:55;15.30;99.90
27306;DHT22;14792;50.886;6.468;2023-08-06T06:48:55;15.50;99.90
27306;DHT22;14792;50.886;6.468;2023-08-06T06:56:27;15.50;99.90
27306;DHT22;14792;50.886;6.468;2023-08-06T06:59:28;15.70;99.90
27306;DHT22;14792;50.886;6.468;2023-08-06T07:02:30;15.70;99.90
27306;DHT22;14792;50.886;6.468;2023-08-06T07:05:32;15.60;99.90
27306;DHT22;14792;50.886;6.468;2023-08-06T07:08:33;15.60;99.90
27306;DHT22;14792;50.886;6.468;2023-08-06T07:11:35;15.60;99.90
27306;DHT22;14792;50.886;6.468;2023-08-06T07:14:36;15.50;99.90
27306;DHT22;14792;50.886;6.468;2023-08-06T07:17:38;15.50;99.90
27306;DHT22;14792;50.886;6.468;2023-08-06T07:20:40;15.40;99.90
27306;DHT22;14792;50.886;6.468;2023-08-06T07:23:41;15.50;99.90
27306;DHT22;14792;50.886;6.468;2023-08-06T07:26:43;15.50;99.90
27306;DHT22;14792;50.886;6.468;2023-08-06T07:29:44;15.50;99.90
27306;DHT22;14792;50.886;6.468;2023-08-06T07:32:46;15.70;99.90
27306;DHT22;14792;50.886;6.468;2023-08-06T07:35:47;15.80;99.90
27306;DHT22;14792;50.886;6.468;2023-08-06T07:38:49;15.80;99.90
27306;DHT22;14792;50.886;6.468;2023-08-06T07:41:53;15.70;99.90
27306;DHT22;14792;50.886;6.468;2023-08-06T07:44:53;15.70;99.90
27306;DHT22;14792;50.886;6.468;2023-08-06T07:48:27;15.80;99.90
27306;DHT22;14792;50.886;6.468;2023-08-06T07:51:28;15.90;99.90
27306;DHT22;14792;50.886;6.468;2023-08-06T07:54:30;15.90;99.90
27306;DHT22;14792;50.886;6.468;2023-08-06T07:57:32;15.90;99.90
27306;DHT22;14792;50.886;6.468;2023-08-06T08:00:33;15.90;99.90
27306;DHT22;14792;50.886;6.468;2023-08-06T08:03:35;15.90;99.90
27306;DHT22;14792;50.886;6.468;2023-08-06T08:07:28;15.90;99.90
27306;DHT22;14792;50.886;6.468;2023-08-06T08:10:30;16.00;99.90
27306;DHT22;14792;50.886;6.468;2023-08-06T08:13:31;16.10;99.90
27306;DHT22;14792;50.886;6.468;2023-08-06T08:16:33;16.10;99.90
27306;DHT22;14792;50.886;6.468;2023-08-06T08:19:35;16.00;99.90
27306;DHT22;14792;50.886;6.468;2023-08-06T08:22:36;16.00;99.90
27306;DHT22;14792;50.886;6.468;2023-08-06T08:25:38;15.90;99.90
27306;DHT22;14792;50.886;6.468;2023-08-06T08:28:39;15.80;99.90
27306;DHT22;14792;50.886;6.468;2023-08-06T08:31:41;15.70;99.90
27306;DHT22;14792;50.886;6.468;2023-08-06T08:34:42;15.80;99.90
27306;DHT22;14792;50.886;6.468;2023-08-06T08:37:44;15.90;99.90
27306;DHT22;14792;50.886;6.468;2023-08-06T08:40:46;15.80;99.90
27306;DHT22;14792;50.886;6.468;2023-08-06T08:43:50;15.70;99.90
27306;DHT22;14792;50.886;6.468;2023-08-06T08:46:51;15.70;99.90
27306;DHT22;14792;50.886;6.468;2023-08-06T08:49:54;15.70;99.90
27306;DHT22;14792;50.886;6.468;2023-08-06T08:53:28;15.80;99.90
27306;DHT22;14792;50.886;6.468;2023-08-06T08:56:30;15.80;99.90
27306;DHT22;14792;50.886;6.468;2023-08-06T08:59:33;15.90;99.90
27306;DHT22;14792;50.886;6.468;2023-08-06T09:02:33;15.50;99.90
27306;DHT22;14792;50.886;6.468;2023-08-06T09:05:35;15.20;99.90
27306;DHT22;14792;50.886;6.468;2023-08-06T09:08:37;14.90;99.90
27306;DHT22;14792;50.886;6.468;2023-08-06T09:11:43;14.80;99.90
27306;DHT22;14792;50.886;6.468;2023-08-06T09:14:45;14.60;99.90
27306;DHT22;14792;50.886;6.468;2023-08-06T09:21:31;14.40;99.90
27306;DHT22;14792;50.886;6.468;2023-08-06T09:24:33;14.40;99.90
27306;DHT22;14792;50.886;6.468;2023-08-06T09:27:34;14.30;99.90
27306;DHT22;14792;50.886;6.468;2023-08-06T09:30:36;14.30;99.90
27306;DHT22;14792;50.886;6.468;2023-08-06T09:33:37;14.20;99.90
27306;DHT22;14792;50.886;6.468;2023-08-06T09:36:42;14.20;99.90
27306;DHT22;14792;50.886;6.468;2023-08-06T09:39:43;14.10;99.90
27306;DHT22;14792;50.886;6.468;2023-08-06T09:42:45;14.10;99.90
27306;DHT22;14792;50.886;6.468;2023-08-06T09:45:46;14.10;99.90
27306;DHT22;14792;50.886;6.468;2023-08-06T09:48:48;14.00;99.90
27306;DHT22;14792;50.886;6.468;2023-08-06T09:51:51;13.90;99.90
27306;DHT22;14792;50.886;6.468;2023-08-06T09:55:29;13.80;99.90
27306;DHT22;14792;50.886;6.468;2023-08-06T09:58:32;13.80;99.90
27306;DHT22;14792;50.886;6.468;2023-08-06T10:01:33;13.80;99.90
27306;DHT22;14792;50.886;6.468;2023-08-06T10:04:34;13.80;99.90
27306;DHT22;14792;50.886;6.468;2023-08-06T10:07:36;13.70;99.90
27306;DHT22;14792;50.886;6.468;2023-08-06T10:10:37;13.70;99.90
27306;DHT22;14792;50.886;6.468;2023-08-06T10:13:39;13.70;99.90
27306;DHT22;14792;50.886;6.468;2023-08-06T10:16:41;13.70;99.90
27306;DHT22;14792;50.886;6.468;2023-08-06T10:19:42;13.60;99.90
27306;DHT22;14792;50.886;6.468;2023-08-06T10:22:44;13.60;99.90
27306;DHT22;14792;50.886;6.468;2023-08-06T10:29:35;13.60;99.90
27306;DHT22;14792;50.886;6.468;2023-08-06T10:32:46;13.70;99.90
27306;DHT22;14792;50.886;6.468;2023-08-06T10:35:48;13.70;99.90
27306;DHT22;14792;50.886;6.468;2023-08-06T10:38:52;13.80;99.90
27306;DHT22;14792;50.886;6.468;2023-08-06T10:41:53;13.70;99.90
27306;DHT22;14792;50.886;6.468;2023-08-06T10:45:14;13.80;99.90
27306;DHT22;14792;50.886;6.468;2023-08-06T10:48:20;13.90;99.90
27306;DHT22;14792;50.886;6.468;2023-08-06T10:51:17;14.10;99.90
27306;DHT22;14792;50.886;6.468;2023-08-06T10:54:18;14.10;99.90
27306;DHT22;14792;50.886;6.468;2023-08-06T10:57:20;14.20;99.90
27306;DHT22;14792;50.886;6.468;2023-08-06T11:00:22;14.20;99.90
27306;DHT22;14792;50.886;6.468;2023-08-06T11:03:23;14.30;99.90
27306;DHT22;14792;50.886;6.468;2023-08-06T11:06:25;14.40;99.90
27306;DHT22;14792;50.886;6.468;2023-08-06T11:09:29;14.30;99.90
27306;DHT22;14792;50.886;6.468;2023-08-06T11:36:30;14.60;99.90
27306;DHT22;14792;50.886;6.468;2023-08-06T11:51:27;14.90;99.90
27306;DHT22;14792;50.886;6.468;2023-08-06T11:58:10;15.00;99.90
27306;DHT22;14792;50.886;6.468;2023-08-06T12:01:12;15.10;99.90
27306;DHT22;14792;50.886;6.468;2023-08-06T12:04:13;15.30;99.90
27306;DHT22;14792;50.886;6.468;2023-08-06T12:07:15;15.40;99.90
27306;DHT22;14792;50.886;6.468;2023-08-06T12:10:16;15.40;99.90
27306;DHT22;14792;50.886;6.468;2023-08-06T12:13:18;15.60;99.90
27306;DHT22;14792;50.886;6.468;2023-08-06T12:16:20;15.80;99.90
27306;DHT22;14792;50.886;6.468;2023-08-06T12:19:28;15.80;99.90
27306;DHT22;14792;50.886;6.468;2023-08-06T12:22:29;16.00;99.90
27306;DHT22;14792;50.886;6.468;2023-08-06T12:25:31;16.10;99.90
27306;DHT22;14792;50.886;6.468;2023-08-06T12:28:32;16.00;99.90
27306;DHT22;14792;50.886;6.468;2023-08-06T12:31:34;16.00;99.90
27306;DHT22;14792;50.886;6.468;2023-08-06T12:34:37;15.90;99.90
27306;DHT22;14792;50.886;6.468;2023-08-06T12:37:37;16.00;99.90
27306;DHT22;14792;50.886;6.468;2023-08-06T12:40:41;16.10;99.90
27306;DHT22;14792;50.886;6.468;2023-08-06T12:43:43;16.10;99.90
27306;DHT22;14792;50.886;6.468;2023-08-06T12:46:44;16.20;99.90
27306;DHT22;14792;50.886;6.468;2023-08-06T12:49:46;16.10;99.90
27306;DHT22;14792;50.886;6.468;2023-08-06T12:52:48;15.90;99.90
27306;DHT22;14792;50.886;6.468;2023-08-06T12:55:49;16.00;99.90
27306;DHT22;14792;50.886;6.468;2023-08-06T12:58:51;15.90;99.90
27306;DHT22;14792;50.886;6.468;2023-08-06T13:01:52;15.80;99.90
27306;DHT22;14792;50.886;6.468;2023-08-06T13:04:54;15.90;99.90
27306;DHT22;14792;50.886;6.468;2023-08-06T13:07:56;15.80;99.90
27306;DHT22;14792;50.886;6.468;2023-08-06T13:10:57;16.00;99.90
27306;DHT22;14792;50.886;6.468;2023-08-06T13:14:05;16.10;99.90
27306;DHT22;14792;50.886;6.468;2023-08-06T13:17:06;16.20;99.90
27306;DHT22;14792;50.886;6.468;2023-08-06T13:20:08;16.40;99.90
27306;DHT22;14792;50.886;6.468;2023-08-06T13:23:27;16.30;99.90
27306;DHT22;14792;50.886;6.468;2023-08-06T13:26:29;16.20;99.90
27306;DHT22;14792;50.886;6.468;2023-08-06T13:29:31;16.30;99.90
27306;DHT22;14792;50.886;6.468;2023-08-06T13:32:32;16.20;99.90
27306;DHT22;14792;50.886;6.468;2023-08-06T13:35:34;16.00;99.90
27306;DHT22;14792;50.886;6.468;2023-08-06T13:38:35;15.90;99.90
27306;DHT22;14792;50.886;6.468;2023-08-06T13:41:37;15.90;99.90
27306;DHT22;14792;50.886;6.468;2023-08-06T13:44:39;16.00;99.90
27306;DHT22;14792;50.886;6.468;2023-08-06T13:47:40;16.10;99.90
27306;DHT22;14792;50.886;6.468;2023-08-06T13:50:42;16.10;99.90
27306;DHT22;14792;50.886;6.468;2023-08-06T13:53:43;16.20;99.90
27306;DHT22;14792;50.886;6.468;2023-08-06T13:56:45;16.10;99.90
27306;DHT22;14792;50.886;6.468;2023-08-06T13:59:46;16.00;99.90
27306;DHT22;14792;50.886;6.468;2023-08-06T14:02:48;16.00;99.90
27306;DHT22;14792;50.886;6.468;2023-08-06T14:05:50;15.80;99.90
27306;DHT22;14792;50.886;6.468;2023-08-06T14:08:51;15.70;99.90
27306;DHT22;14792;50.886;6.468;2023-08-06T14:11:53;15.70;99.90
27306;DHT22;14792;50.886;6.468;2023-08-06T14:14:54;15.90;99.90
27306;DHT22;14792;50.886;6.468;2023-08-06T14:17:56;15.70;99.90
27306;DHT22;14792;50.886;6.468;2023-08-06T14:20:58;15.80;99.90
27306;DHT22;14792;50.886;6.468;2023-08-06T14:23:59;15.80;99.90
27306;DHT22;14792;50.886;6.468;2023-08-06T14:27:01;15.70;99.90
27306;DHT22;14792;50.886;6.468;2023-08-06T14:30:02;15.70;99.90
27306;DHT22;14792;50.886;6.468;2023-08-06T14:33:04;15.70;99.90
27306;DHT22;14792;50.886;6.468;2023-08-06T14:36:06;15.60;99.90
27306;DHT22;14792;50.886;6.468;2023-08-06T14:39:07;15.60;99.90
27306;DHT22;14792;50.886;6.468;2023-08-06T14:42:09;15.50;99.90
27306;DHT22;14792;50.886;6.468;2023-08-06T14:45:10;15.50;99.90
27306;DHT22;14792;50.886;6.468;2023-08-06T14:48:12;15.50;99.90
27306;DHT22;14792;50.886;6.468;2023-08-06T14:51:14;15.50;99.90
27306;DHT22;14792;50.886;6.468;2023-08-06T14:54:15;15.30;99.90
27306;DHT22;14792;50.886;6.468;2023-08-06T14:57:17;15.40;99.90
27306;DHT22;14792;50.886;6.468;2023-08-06T15:00:19;15.50;99.90
27306;DHT22;14792;50.886;6.468;2023-08-06T15:03:20;15.50;99.90
27306;DHT22;14792;50.886;6.468;2023-08-06T15:06:22;15.60;99.90
27306;DHT22;14792;50.886;6.468;2023-08-06T15:09:23;15.70;99.90
27306;DHT22;14792;50.886;6.468;2023-08-06T15:12:25;15.80;99.90
27306;DHT22;14792;50.886;6.468;2023-08-06T15:15:26;15.80;99.90
27306;DHT22;14792;50.886;6.468;2023-08-06T15:18:28;15.70;99.90
27306;DHT22;14792;50.886;6.468;2023-08-06T15:21:29;15.80;99.90
27306;DHT22;14792;50.886;6.468;2023-08-06T15:24:31;15.70;99.90
27306;DHT22;14792;50.886;6.468;2023-08-06T15:27:33;15.80;99.90
27306;DHT22;14792;50.886;6.468;2023-08-06T15:30:34;15.70;99.90
27306;DHT22;14792;50.886;6.468;2023-08-06T15:33:36;15.70;99.90
27306;DHT22;14792;50.886;6.468;2023-08-06T15:36:37;15.80;99.90
27306;DHT22;14792;50.886;6.468;2023-08-06T15:39:39;15.70;99.90
27306;DHT22;14792;50.886;6.468;2023-08-06T15:42:41;15.50;99.90
27306;DHT22;14792;50.886;6.468;2023-08-06T15:45:42;15.50;99.90
27306;DHT22;14792;50.886;6.468;2023-08-06T15:48:44;15.50;99.90
27306;DHT22;14792;50.886;6.468;2023-08-06T15:51:45;15.40;99.90
27306;DHT22;14792;50.886;6.468;2023-08-06T15:54:47;15.30;99.90
27306;DHT22;14792;50.886;6.468;2023-08-06T15:57:48;15.50;99.90
27306;DHT22;14792;50.886;6.468;2023-08-06T16:00:51;15.50;99.90
27306;DHT22;14792;50.886;6.468;2023-08-06T16:03:52;15.40;99.90
27306;DHT22;14792;50.886;6.468;2023-08-06T16:06:54;15.30;99.90
27306;DHT22;14792;50.886;6.468;2023-08-06T16:09:55;15.30;99.90
27306;DHT22;14792;50.886;6.468;2023-08-06T16:12:57;15.20;99.90
27306;DHT22;14792;50.886;6.468;2023-08-06T16:15:58;15.30;99.90
27306;DHT22;14792;50.886;6.468;2023-08-06T16:19:02;15.10;99.90
27306;DHT22;14792;50.886;6.468;2023-08-06T16:22:04;15.20;99.90
27306;DHT22;14792;50.886;6.468;2023-08-06T16:25:06;15.30;99.90
27306;DHT22;14792;50.886;6.468;2023-08-06T16:28:08;15.30;99.90
27306;DHT22;14792;50.886;6.468;2023-08-06T16:31:10;15.20;99.90
27306;DHT22;14792;50.886;6.468;2023-08-06T16:34:11;15.00;99.90
27306;DHT22;14792;50.886;6.468;2023-08-06T16:37:28;14.90;99.90
27306;DHT22;14792;50.886;6.468;2023-08-06T16:40:29;14.70;99.90
27306;DHT22;14792;50.886;6.468;2023-08-06T16:43:31;14.60;99.90
27306;DHT22;14792;50.886;6.468;2023-08-06T16:46:32;14.60;99.90
27306;DHT22;14792;50.886;6.468;2023-08-06T16:49:34;14.50;99.90
27306;DHT22;14792;50.886;6.468;2023-08-06T16:52:36;14.50;99.90
27306;DHT22;14792;50.886;6.468;2023-08-06T16:55:37;14.50;99.90
27306;DHT22;14792;50.886;6.468;2023-08-06T16:58:39;14.40;99.90
27306;DHT22;14792;50.886;6.468;2023-08-06T17:01:40;14.40;99.90
27306;DHT22;14792;50.886;6.468;2023-08-06T17:04:43;14.40;99.90
27306;DHT22;14792;50.886;6.468;2023-08-06T17:07:44;14.40;99.90
27306;DHT22;14792;50.886;6.468;2023-08-06T17:10:45;14.30;99.90
27306;DHT22;14792;50.886;6.468;2023-08-06T17:13:47;14.40;99.90
27306;DHT22;14792;50.886;6.468;2023-08-06T17:16:48;14.40;99.90
27306;DHT22;14792;50.886;6.468;2023-08-06T17:19:50;14.30;99.90
27306;DHT22;14792;50.886;6.468;2023-08-06T17:22:52;14.30;99.90
27306;DHT22;14792;50.886;6.468;2023-08-06T17:25:53;14.20;99.90
27306;DHT22;14792;50.886;6.468;2023-08-06T17:28:55;14.20;99.90
27306;DHT22;14792;50.886;6.468;2023-08-06T17:31:56;14.10;99.90
27306;DHT22;14792;50.886;6.468;2023-08-06T17:34:58;14.10;99.90
27306;DHT22;14792;50.886;6.468;2023-08-06T17:38:00;14.10;99.90
27306;DHT22;14792;50.886;6.468;2023-08-06T17:41:01;14.00;99.90
27306;DHT22;14792;50.886;6.468;2023-08-06T17:44:03;14.00;99.90
27306;DHT22;14792;50.886;6.468;2023-08-06T17:47:28;13.90;99.90
27306;DHT22;14792;50.886;6.468;2023-08-06T17:50:30;13.90;99.90
27306;DHT22;14792;50.886;6.468;2023-08-06T17:53:32;13.90;99.90
27306;DHT22;14792;50.886;6.468;2023-08-06T17:56:33;13.80;99.90
27306;DHT22;14792;50.886;6.468;2023-08-06T17:59:35;13.80;99.90
27306;DHT22;14792;50.886;6.468;2023-08-06T18:02:36;13.80;99.90
27306;DHT22;14792;50.886;6.468;2023-08-06T18:05:38;13.80;99.90
27306;DHT22;14792;50.886;6.468;2023-08-06T18:08:40;13.70;99.90
27306;DHT22;14792;50.886;6.468;2023-08-06T18:11:41;13.70;99.90
27306;DHT22;14792;50.886;6.468;2023-08-06T18:14:43;13.60;99.90
27306;DHT22;14792;50.886;6.468;2023-08-06T18:17:44;13.60;99.90
27306;DHT22;14792;50.886;6.468;2023-08-06T18:20:46;13.70;99.90
27306;DHT22;14792;50.886;6.468;2023-08-06T18:23:48;13.60;99.90
27306;DHT22;14792;50.886;6.468;2023-08-06T18:26:49;13.60;99.90
27306;DHT22;14792;50.886;6.468;2023-08-06T18:29:51;13.60;99.90
27306;DHT22;14792;50.886;6.468;2023-08-06T18:32:52;13.50;99.90
27306;DHT22;14792;50.886;6.468;2023-08-06T18:35:54;13.50;99.90
27306;DHT22;14792;50.886;6.468;2023-08-06T18:38:55;13.40;99.90
27306;DHT22;14792;50.886;6.468;2023-08-06T18:41:58;13.40;99.90
27306;DHT22;14792;50.886;6.468;2023-08-06T18:45:00;13.40;99.90
27306;DHT22;14792;50.886;6.468;2023-08-06T18:48:02;13.40;99.90
27306;DHT22;14792;50.886;6.468;2023-08-06T18:51:03;13.40;99.90
27306;DHT22;14792;50.886;6.468;2023-08-06T18:54:05;13.40;99.90
27306;DHT22;14792;50.886;6.468;2023-08-06T18:57:06;13.40;99.90
27306;DHT22;14792;50.886;6.468;2023-08-06T19:00:08;13.40;99.90
27306;DHT22;14792;50.886;6.468;2023-08-06T19:03:10;13.40;99.90
27306;DHT22;14792;50.886;6.468;2023-08-06T19:06:11;13.40;99.90
27306;DHT22;14792;50.886;6.468;2023-08-06T19:09:13;13.40;99.90
27306;DHT22;14792;50.886;6.468;2023-08-06T19:12:14;13.40;99.90
27306;DHT22;14792;50.886;6.468;2023-08-06T19:15:28;13.40;99.90
27306;DHT22;14792;50.886;6.468;2023-08-06T19:18:29;13.30;99.90
27306;DHT22;14792;50.886;6.468;2023-08-06T19:21:31;13.30;99.90
27306;DHT22;14792;50.886;6.468;2023-08-06T19:24:32;13.30;99.90
27306;DHT22;14792;50.886;6.468;2023-08-06T19:27:34;13.30;99.90
27306;DHT22;14792;50.886;6.468;2023-08-06T19:30:36;13.40;99.90
27306;DHT22;14792;50.886;6.468;2023-08-06T19:33:37;13.30;99.90
27306;DHT22;14792;50.886;6.468;2023-08-06T19:36:39;13.30;99.90
27306;DHT22;14792;50.886;6.468;2023-08-06T19:47:31;13.30;99.90
27306;DHT22;14792;50.886;6.468;2023-08-06T20:10:27;13.10;99.90
27306;DHT22;14792;50.886;6.468;2023-08-06T20:25:27;13.10;99.90
27306;DHT22;14792;50.886;6.468;2023-08-06T20:44:27;13.10;99.90
27306;DHT22;14792;50.886;6.468;2023-08-06T21:15:07;13.00;99.90
27306;DHT22;14792;50.886;6.468;2023-08-06T21:18:09;12.90;99.90
27306;DHT22;14792;50.886;6.468;2023-08-06T21:21:10;12.90;99.90
27306;DHT22;14792;50.886;6.468;2023-08-06T21:24:12;12.90;99.90
27306;DHT22;14792;50.886;6.468;2023-08-06T21:27:14;12.90;99.90
27306;DHT22;14792;50.886;6.468;2023-08-06T21:30:29;12.90;99.90
27306;DHT22;14792;50.886;6.468;2023-08-06T21:33:30;12.80;99.90